createdAt,value
2022-09-28T00:01:36.472Z,1.73
2022-09-28T00:04:03.301Z,0.50
2022-09-28T00:06:30.588Z,0.98
2022-09-28T00:08:57.842Z,0.32
2022-09-28T00:11:28.204Z,0.50
2022-09-28T00:13:57.702Z,0.30
2022-09-28T00:16:29.445Z,1.35
2022-09-28T00:18:56.298Z,0.30
2022-09-28T00:21:30.618Z,0.90
2022-09-28T00:24:18.943Z,0.60
2022-09-28T00:26:55.603Z,1.83
2022-09-28T00:29:32.899Z,0.38
2022-09-28T00:32:08.034Z,0.52
2022-09-28T00:34:37.060Z,0.40
2022-09-28T00:37:04.958Z,1.52
2022-09-28T00:39:31.892Z,0.50
2022-09-28T00:41:58.828Z,0.30
2022-09-28T00:44:25.590Z,0.70
2022-09-28T00:46:53.420Z,0.68
2022-09-28T00:49:21.458Z,0.47
2022-09-28T00:51:48.364Z,0.75
2022-09-28T00:54:15.367Z,1.00
2022-09-28T00:56:43.199Z,1.02
2022-09-28T00:59:09.981Z,0.90
2022-09-28T01:01:36.929Z,0.32
2022-09-28T01:04:04.928Z,0.95
2022-09-28T01:06:33.743Z,0.65
2022-09-28T01:09:04.626Z,0.50
2022-09-28T01:11:36.315Z,0.93
2022-09-28T01:14:03.715Z,1.42
2022-09-28T01:16:57.968Z,0.45
2022-09-28T01:20:16.944Z,1.05
2022-09-28T01:23:25.453Z,0.55
2022-09-28T01:26:29.511Z,0.40
2022-09-28T01:29:25.382Z,0.30
2022-09-28T01:31:56.724Z,0.32
2022-09-28T01:34:35.675Z,0.90
2022-09-28T01:37:02.695Z,0.57
2022-09-28T01:39:34.930Z,0.30
2022-09-28T01:42:05.150Z,0.52
2022-09-28T01:44:32.281Z,0.30
2022-09-28T01:47:03.511Z,0.40
2022-09-28T01:49:36.763Z,0.90
2022-09-28T01:52:21.329Z,0.40
2022-09-28T01:55:08.438Z,0.30
2022-09-28T01:57:43.115Z,0.63
2022-09-28T02:00:11.870Z,0.20
2022-09-28T02:03:01.807Z,0.43
2022-09-28T02:05:37.193Z,0.28
2022-09-28T02:08:15.235Z,0.20
2022-09-28T02:10:48.984Z,0.60
2022-09-28T02:13:18.832Z,0.28
2022-09-28T02:15:51.320Z,0.52
2022-09-28T02:18:18.051Z,0.40
2022-09-28T02:20:49.275Z,0.47
2022-09-28T02:23:16.134Z,0.40
2022-09-28T02:25:52.703Z,0.82
2022-09-28T02:28:19.362Z,0.28
2022-09-28T02:30:46.067Z,0.47
2022-09-28T02:33:25.265Z,0.70
2022-09-28T02:35:52.101Z,0.30
2022-09-28T02:38:18.799Z,0.20
2022-09-28T02:40:50.556Z,0.63
2022-09-28T02:43:36.030Z,0.30
2022-09-28T02:46:28.517Z,0.20
2022-09-28T02:49:17.448Z,1.13
2022-09-28T02:51:52.859Z,0.20
2022-09-28T02:54:48.455Z,0.40
2022-09-28T02:57:44.074Z,0.70
2022-09-28T03:00:23.502Z,0.43
2022-09-28T03:02:59.346Z,0.45
2022-09-28T03:05:48.625Z,0.70
2022-09-28T03:08:23.111Z,0.28
2022-09-28T03:10:57.015Z,0.63
2022-09-28T03:13:23.824Z,0.20
2022-09-28T03:15:50.692Z,0.50
2022-09-28T03:18:17.599Z,0.35
2022-09-28T03:20:44.508Z,0.32
2022-09-28T03:23:26.369Z,0.68
2022-09-28T03:25:53.272Z,0.52
2022-09-28T03:28:21.583Z,0.30
2022-09-28T03:30:49.355Z,0.47
2022-09-28T03:33:16.114Z,0.50
2022-09-28T03:35:44.754Z,0.60
2022-09-28T03:38:11.416Z,0.25
2022-09-28T03:40:38.103Z,0.32
2022-09-28T03:43:04.821Z,0.55
2022-09-28T03:45:31.629Z,0.22
2022-09-28T03:47:58.356Z,0.22
2022-09-28T03:50:24.991Z,0.13
2022-09-28T03:52:51.681Z,0.25
2022-09-28T03:55:18.479Z,0.50
2022-09-28T03:57:45.212Z,0.22
2022-09-28T04:00:12.905Z,0.98
2022-09-28T04:02:40.006Z,0.20
2022-09-28T04:05:06.819Z,1.05
2022-09-28T04:07:33.487Z,0.20
2022-09-28T04:10:00.193Z,0.80
2022-09-28T04:12:26.901Z,0.20
2022-09-28T04:14:53.668Z,0.28
2022-09-28T04:17:20.371Z,1.08
2022-09-28T04:19:47.444Z,0.68
2022-09-28T04:22:14.225Z,0.57
2022-09-28T04:24:43.482Z,0.63
2022-09-28T04:27:29.276Z,1.85
2022-09-28T04:29:55.903Z,0.40
2022-09-28T04:32:22.645Z,0.22
2022-09-28T04:34:49.464Z,0.98
2022-09-28T04:37:16.152Z,0.17
2022-09-28T04:39:47.491Z,0.43
2022-09-28T04:42:16.012Z,0.35
2022-09-28T04:44:42.692Z,0.88
2022-09-28T04:47:09.422Z,0.30
2022-09-28T04:49:38.281Z,0.25
2022-09-28T04:52:05.507Z,0.63
2022-09-28T04:54:32.216Z,0.35
2022-09-28T04:56:59.222Z,0.80
2022-09-28T04:59:26.177Z,0.47
2022-09-28T05:01:54.170Z,1.05
2022-09-28T05:04:25.580Z,0.60
2022-09-28T05:06:52.787Z,0.40
2022-09-28T05:09:19.438Z,0.90
2022-09-28T05:11:46.194Z,0.52
2022-09-28T05:14:14.106Z,0.55
2022-09-28T05:16:40.816Z,0.52
2022-09-28T05:19:07.570Z,0.30
2022-09-28T05:21:35.545Z,0.77
2022-09-28T05:24:07.245Z,0.35
2022-09-28T05:26:34.592Z,0.43
2022-09-28T05:29:01.782Z,0.40
2022-09-28T05:31:28.871Z,1.25
2022-09-28T05:33:55.615Z,0.65
2022-09-28T05:36:22.687Z,1.08
2022-09-28T05:38:49.655Z,0.55
2022-09-28T05:41:16.835Z,1.80
2022-09-28T05:43:45.652Z,0.57
2022-09-28T05:46:12.312Z,0.22
2022-09-28T05:48:39.546Z,0.63
2022-09-28T05:51:06.675Z,0.40
2022-09-28T05:53:33.525Z,0.25
2022-09-28T05:56:00.410Z,0.63
2022-09-28T05:58:28.347Z,1.60
2022-09-28T06:00:56.150Z,0.35
2022-09-28T06:03:23.317Z,0.47
2022-09-28T06:05:50.419Z,0.95
2022-09-28T06:08:17.228Z,1.05
2022-09-28T06:10:44.020Z,0.30
2022-09-28T06:13:12.168Z,0.38
2022-09-28T06:15:39.216Z,0.30
2022-09-28T06:18:09.722Z,0.40
2022-09-28T06:20:37.868Z,0.20
2022-09-28T06:23:05.092Z,0.77
2022-09-28T06:25:32.336Z,0.40
2022-09-28T06:28:00.545Z,0.40
2022-09-28T06:30:27.858Z,0.30
2022-09-28T06:32:55.743Z,0.20
2022-09-28T06:35:23.317Z,0.38
2022-09-28T06:37:50.642Z,0.30
2022-09-28T06:40:17.495Z,0.15
2022-09-28T06:42:44.517Z,0.50
2022-09-28T06:45:11.399Z,1.73
2022-09-28T06:47:38.138Z,1.50
2022-09-28T06:50:13.544Z,0.63
2022-09-28T06:52:40.189Z,1.20
2022-09-28T06:55:08.120Z,0.55
2022-09-28T06:57:35.180Z,0.47
2022-09-28T07:00:03.568Z,0.40
2022-09-28T07:02:31.399Z,0.57
2022-09-28T07:04:59.030Z,1.45
2022-09-28T07:07:25.819Z,0.50
2022-09-28T07:09:55.655Z,1.63
2022-09-28T07:12:26.557Z,0.77
2022-09-28T07:14:57.612Z,1.48
2022-09-28T07:17:24.609Z,0.40
2022-09-28T07:19:53.643Z,0.52
2022-09-28T07:22:31.267Z,1.85
2022-09-28T07:25:05.505Z,0.95
2022-09-28T07:27:32.272Z,0.30
2022-09-28T07:30:00.784Z,0.73
2022-09-28T07:32:27.763Z,1.98
2022-09-28T07:34:58.847Z,1.30
2022-09-28T07:37:26.613Z,1.58
2022-09-28T07:40:11.883Z,1.85
2022-09-28T07:42:38.601Z,1.27
2022-09-28T07:45:07.182Z,1.65
2022-09-28T07:47:35.220Z,1.90
2022-09-28T07:50:02.328Z,1.38
2022-09-28T07:52:29.594Z,1.30
2022-09-28T07:54:56.322Z,1.27
2022-09-28T07:57:23.174Z,3.22
2022-09-28T07:59:49.994Z,2.05
2022-09-28T08:02:20.332Z,2.67
2022-09-28T08:04:48.264Z,3.20
2022-09-28T08:07:23.526Z,1.23
2022-09-28T08:09:52.085Z,3.72
2022-09-28T08:12:19.916Z,1.80
2022-09-28T08:14:47.184Z,3.25
2022-09-28T08:17:13.869Z,3.08
2022-09-28T08:19:59.384Z,1.40
2022-09-28T08:22:26.017Z,2.20
2022-09-28T08:24:52.720Z,1.20
2022-09-28T08:27:19.428Z,0.90
2022-09-28T08:29:46.253Z,2.42
2022-09-28T08:32:13.506Z,1.42
2022-09-28T08:34:40.895Z,2.13
2022-09-28T08:37:09.158Z,2.60
2022-09-28T08:39:36.426Z,1.75
2022-09-28T08:42:15.732Z,1.52
2022-09-28T08:44:47.993Z,3.42
2022-09-28T08:48:08.718Z,2.53
2022-09-28T08:50:47.555Z,1.73
2022-09-28T08:53:36.315Z,2.85
2022-09-28T08:56:04.934Z,1.58
2022-09-28T08:58:37.908Z,2.08
2022-09-28T09:01:06.651Z,3.22
2022-09-28T09:03:39.463Z,3.22
2022-09-28T09:06:28.262Z,1.38
2022-09-28T09:09:13.348Z,0.93
2022-09-28T09:11:51.126Z,1.10
2022-09-28T09:14:29.950Z,2.33
2022-09-28T09:17:44.268Z,1.92
2022-09-28T09:22:59.917Z,1.83
2022-09-28T09:25:38.290Z,2.00
2022-09-28T09:28:32.698Z,2.50
2022-09-28T09:31:27.137Z,2.40
2022-09-28T09:34:05.721Z,2.00
2022-09-28T09:36:50.549Z,1.92
2022-09-28T09:39:45.116Z,2.05
2022-09-28T09:42:28.256Z,2.75
2022-09-28T09:45:01.667Z,2.00
2022-09-28T09:47:34.356Z,1.70
2022-09-28T09:50:19.781Z,1.40
2022-09-28T09:52:55.016Z,1.75
2022-09-28T09:55:44.143Z,2.67
2022-09-28T09:58:38.550Z,3.58
2022-09-28T10:01:10.963Z,2.08
2022-09-28T10:03:40.519Z,1.75
2022-09-28T10:06:10.846Z,2.17
2022-09-28T10:08:49.420Z,1.65
2022-09-28T10:11:31.543Z,1.48
2022-09-28T10:13:58.461Z,1.40
2022-09-28T10:16:25.276Z,2.08
2022-09-28T10:18:52.048Z,2.50
2022-09-28T10:21:20.395Z,1.42
2022-09-28T10:23:48.048Z,0.93
2022-09-28T10:26:34.463Z,1.92
2022-09-28T10:29:03.584Z,1.83
2022-09-28T10:31:54.086Z,1.30
2022-09-28T10:34:28.560Z,1.77
2022-09-28T10:37:03.235Z,0.90
2022-09-28T10:39:36.449Z,1.05
2022-09-28T10:44:34.518Z,1.33
2022-09-28T10:47:07.973Z,0.90
2022-09-28T10:49:46.745Z,0.68
2022-09-28T10:52:30.139Z,0.88
2022-09-28T10:54:56.848Z,1.10
2022-09-28T10:57:34.220Z,1.05
2022-09-28T11:00:01.754Z,1.02
2022-09-28T11:02:35.914Z,0.55
2022-09-28T11:05:05.010Z,0.80
2022-09-28T11:07:33.007Z,1.48
2022-09-28T11:10:00.843Z,1.90
2022-09-28T11:12:29.569Z,1.05
2022-09-28T11:15:00.853Z,1.13
2022-09-28T11:17:32.680Z,2.17
2022-09-28T11:20:01.073Z,1.23
2022-09-28T11:22:30.121Z,2.00
2022-09-28T11:25:32.363Z,1.15
2022-09-28T11:28:04.443Z,1.05
2022-09-28T11:30:45.615Z,0.75
2022-09-28T11:33:19.968Z,0.85
2022-09-28T11:35:51.740Z,0.90
2022-09-28T11:38:47.440Z,0.73
2022-09-28T11:41:24.327Z,0.93
2022-09-28T11:44:32.518Z,1.75
2022-09-28T11:47:13.804Z,1.08
2022-09-28T11:50:24.173Z,1.02
2022-09-28T11:53:03.179Z,1.15
2022-09-28T11:55:40.813Z,2.08
2022-09-28T11:58:23.303Z,1.42
2022-09-28T12:00:55.221Z,1.33
2022-09-28T12:03:29.024Z,0.50
2022-09-28T12:06:05.143Z,0.50
2022-09-28T12:08:41.551Z,1.35
2022-09-28T12:11:15.907Z,1.52
2022-09-28T12:13:45.360Z,0.30
2022-09-28T12:17:03.681Z,0.90
2022-09-28T12:19:20.309Z,1.00
2022-09-28T12:21:51.636Z,1.67
2022-09-28T12:24:38.527Z,0.63
2022-09-28T12:27:09.927Z,0.50
2022-09-28T12:30:05.768Z,0.85
2022-09-28T12:32:55.376Z,0.77
2022-09-28T12:35:43.690Z,0.80
2022-09-28T12:38:36.032Z,0.50
2022-09-28T12:41:22.355Z,0.47
2022-09-28T12:43:58.213Z,0.50
2022-09-28T12:46:49.768Z,0.43
2022-09-28T12:50:36.292Z,0.68
2022-09-28T12:52:36.591Z,1.17
2022-09-28T12:55:29.724Z,0.30
2022-09-28T12:58:12.203Z,0.82
2022-09-28T13:01:01.621Z,0.90
2022-09-28T13:03:42.547Z,0.60
2022-09-28T13:06:41.249Z,0.85
2022-09-28T13:09:24.658Z,0.95
2022-09-28T13:12:10.220Z,0.40
2022-09-28T13:14:58.353Z,0.82
2022-09-28T13:17:32.932Z,0.63
2022-09-28T13:20:08.538Z,2.83
2022-09-28T13:22:44.386Z,0.73
2022-09-28T13:25:17.003Z,1.42
2022-09-28T13:27:52.957Z,1.13
2022-09-28T13:30:19.642Z,0.25
2022-09-28T13:32:46.887Z,0.30
2022-09-28T13:35:20.406Z,0.60
2022-09-28T13:37:47.735Z,0.82
2022-09-28T13:40:14.892Z,0.22
2022-09-28T13:42:44.854Z,0.40
2022-09-28T13:45:20.778Z,0.75
2022-09-28T13:48:24.555Z,0.90
2022-09-28T13:53:56.799Z,1.15
2022-09-28T13:56:34.982Z,0.30
2022-09-28T13:59:16.809Z,0.28
2022-09-28T14:02:02.892Z,2.25
2022-09-28T14:04:51.110Z,0.50
2022-09-28T14:07:47.469Z,0.55
2022-09-28T14:10:26.058Z,0.55
2022-09-28T14:12:53.426Z,0.55
2022-09-28T14:15:29.362Z,0.30
2022-09-28T14:18:10.508Z,0.65
2022-09-28T14:20:37.313Z,1.02
2022-09-28T14:23:18.703Z,0.40
2022-09-28T14:25:46.743Z,1.00
2022-09-28T14:28:35.242Z,0.75
2022-09-28T14:31:07.813Z,0.80
2022-09-28T14:33:34.522Z,1.40
2022-09-28T14:36:04.331Z,0.82
2022-09-28T14:39:06.891Z,0.80
2022-09-28T14:41:38.106Z,0.70
2022-09-28T14:44:09.895Z,0.82
2022-09-28T14:46:44.724Z,0.47
2022-09-28T14:49:19.437Z,0.57
2022-09-28T14:51:55.874Z,0.57
2022-09-28T14:54:30.331Z,0.40
2022-09-28T14:57:09.288Z,0.40
2022-09-28T14:59:43.478Z,0.80
2022-09-28T15:02:33.072Z,0.43
2022-09-28T15:05:18.337Z,0.30
2022-09-28T15:07:48.053Z,0.45
2022-09-28T15:10:33.053Z,0.32
2022-09-28T15:13:01.982Z,0.75
2022-09-28T15:15:38.903Z,0.68
2022-09-28T15:18:35.654Z,0.70
2022-09-28T15:21:02.759Z,0.30
2022-09-28T15:23:40.407Z,0.40
2022-09-28T15:26:19.828Z,0.90
2022-09-28T15:28:46.739Z,0.45
2022-09-28T15:31:21.702Z,0.47
2022-09-28T15:34:07.291Z,0.32
2022-09-28T15:36:46.403Z,0.68
2022-09-28T15:39:13.237Z,0.30
2022-09-28T15:41:41.787Z,0.52
2022-09-28T15:44:11.268Z,0.73
2022-09-28T15:46:39.544Z,0.40
2022-09-28T15:49:07.518Z,0.75
2022-09-28T15:51:47.346Z,0.52
2022-09-28T15:54:19.841Z,0.50
2022-09-28T15:56:59.875Z,1.15
2022-09-28T15:59:27.906Z,0.40
2022-09-28T16:02:17.505Z,0.50
2022-09-28T16:05:00.891Z,0.75
2022-09-28T16:07:39.896Z,0.30
2022-09-28T16:10:12.752Z,0.47
2022-09-28T16:12:54.113Z,0.63
2022-09-28T16:15:25.226Z,0.50
2022-09-28T16:17:51.975Z,1.00
2022-09-28T16:20:38.048Z,0.52
2022-09-28T16:23:17.086Z,0.70
2022-09-28T16:25:54.010Z,0.60
2022-09-28T16:28:34.493Z,0.30
2022-09-28T16:31:14.658Z,0.45
2022-09-28T16:33:58.207Z,0.30
2022-09-28T16:36:30.080Z,0.28
2022-09-28T16:38:56.971Z,0.20
2022-09-28T16:41:26.273Z,0.40
2022-09-28T16:44:01.041Z,0.60
2022-09-28T16:46:37.361Z,0.60
2022-09-28T16:49:05.971Z,0.98
2022-09-28T16:51:33.643Z,0.30
2022-09-28T16:54:38.372Z,0.20
2022-09-28T16:57:08.108Z,0.10
2022-09-28T16:59:34.865Z,0.30
2022-09-28T17:02:01.652Z,0.65
2022-09-28T17:04:28.388Z,0.52
2022-09-28T17:06:55.479Z,0.28
2022-09-28T17:09:22.541Z,0.20
2022-09-28T17:11:55.595Z,0.30
2022-09-28T17:17:11.569Z,0.30
2022-09-28T17:19:40.390Z,0.15
2022-09-28T17:22:08.280Z,0.32
2022-09-28T17:24:35.238Z,0.25
2022-09-28T17:27:03.267Z,0.20
2022-09-28T17:29:30.291Z,0.30
2022-09-28T17:31:57.120Z,0.20
2022-09-28T17:34:24.063Z,0.20
2022-09-28T17:36:51.086Z,0.20
2022-09-28T17:39:18.630Z,0.20
2022-09-28T17:41:45.539Z,0.10
2022-09-28T17:44:16.029Z,0.30
2022-09-28T17:46:47.589Z,0.25
2022-09-28T17:49:14.684Z,0.30
2022-09-28T17:51:41.433Z,0.28
2022-09-28T17:54:08.310Z,0.32
2022-09-28T17:56:35.427Z,0.30
2022-09-28T17:59:10.354Z,0.20
2022-09-28T18:01:39.149Z,0.55
2022-09-28T18:04:08.239Z,0.35
2022-09-28T18:06:36.184Z,0.20
2022-09-28T18:09:03.297Z,0.20
2022-09-28T18:11:31.382Z,0.82
2022-09-28T18:13:58.766Z,0.50
2022-09-28T18:16:27.877Z,0.75
2022-09-28T18:18:54.855Z,0.88
2022-09-28T18:21:22.465Z,0.50
2022-09-28T18:23:49.317Z,0.60
2022-09-28T18:26:16.859Z,1.15
2022-09-28T18:28:43.665Z,0.30
2022-09-28T18:31:13.319Z,0.40
2022-09-28T18:33:40.806Z,0.57
2022-09-28T18:36:07.777Z,0.68
2022-09-28T18:38:38.179Z,0.32
2022-09-28T18:41:15.937Z,0.55
2022-09-28T18:43:52.159Z,0.98
2022-09-28T18:46:19.242Z,0.45
2022-09-28T18:48:47.706Z,0.82
2022-09-28T18:51:14.456Z,0.70
2022-09-28T18:53:41.258Z,0.68
2022-09-28T18:56:09.474Z,0.50
2022-09-28T18:58:37.000Z,0.82
2022-09-28T19:01:33.821Z,0.68
2022-09-28T19:04:05.573Z,1.00
2022-09-28T19:06:32.721Z,1.10
2022-09-28T19:08:59.599Z,1.27
2022-09-28T19:11:26.615Z,1.25
2022-09-28T19:13:54.359Z,0.65
2022-09-28T19:16:23.279Z,0.50
2022-09-28T19:18:51.362Z,0.70
2022-09-28T19:21:18.337Z,1.17
2022-09-28T19:23:48.962Z,0.60
2022-09-28T19:26:24.577Z,0.77
2022-09-28T19:28:51.350Z,1.35
2022-09-28T19:31:18.249Z,0.77
2022-09-28T19:33:46.647Z,0.95
2022-09-28T19:36:24.082Z,0.70
2022-09-28T19:38:54.951Z,0.95
2022-09-28T19:41:44.362Z,0.63
2022-09-28T19:44:15.735Z,0.73
2022-09-28T19:46:42.649Z,1.52
2022-09-28T19:49:14.953Z,1.42
2022-09-28T19:52:01.735Z,1.80
2022-09-28T19:54:36.333Z,0.63
2022-09-28T19:57:08.534Z,0.45
2022-09-28T19:59:36.711Z,1.65
2022-09-28T20:02:04.855Z,1.25
2022-09-28T20:04:32.077Z,1.50
2022-09-28T20:06:59.048Z,1.10
2022-09-28T20:09:25.862Z,1.30
2022-09-28T20:11:53.257Z,0.70
2022-09-28T20:14:22.381Z,1.75
2022-09-28T20:16:51.268Z,1.30
2022-09-28T20:19:21.072Z,0.57
2022-09-28T20:21:51.022Z,0.70
2022-09-28T20:24:17.877Z,0.98
2022-09-28T20:26:45.889Z,0.50
2022-09-28T20:29:12.868Z,1.10
2022-09-28T20:31:39.675Z,0.77
2022-09-28T20:34:06.646Z,0.75
2022-09-28T20:36:33.476Z,1.25
2022-09-28T20:39:03.588Z,0.43
2022-09-28T20:41:34.788Z,1.23
2022-09-28T20:44:05.304Z,0.85
2022-09-28T20:46:33.707Z,0.68
2022-09-28T20:49:00.746Z,1.63
2022-09-28T20:51:27.635Z,1.40
2022-09-28T20:53:55.971Z,1.90
2022-09-28T20:56:23.424Z,1.02
2022-09-28T20:58:51.298Z,1.33
2022-09-28T21:01:22.917Z,1.10
2022-09-28T21:03:53.651Z,1.55
2022-09-28T21:06:21.882Z,1.85
2022-09-28T21:08:49.556Z,1.33
2022-09-28T21:11:17.804Z,1.35
2022-09-28T21:13:44.568Z,1.85
2022-09-28T21:16:12.115Z,0.82
2022-09-28T21:18:41.956Z,0.82
2022-09-28T21:21:10.035Z,1.42
2022-09-28T21:23:36.869Z,1.50
2022-09-28T21:26:04.464Z,1.83
2022-09-28T21:28:31.250Z,1.92
2022-09-28T21:30:58.021Z,3.33
2022-09-28T21:33:24.790Z,1.67
2022-09-28T21:35:51.516Z,1.85
2022-09-28T21:38:18.198Z,1.20
2022-09-28T21:40:45.270Z,2.53
2022-09-28T21:43:12.521Z,1.73
2022-09-28T21:45:39.843Z,1.75
2022-09-28T21:48:06.642Z,1.98
2022-09-28T21:50:33.580Z,1.98
2022-09-28T21:53:01.979Z,1.70
2022-09-28T21:55:28.855Z,1.98
2022-09-28T21:57:55.609Z,1.67
2022-09-28T22:00:25.202Z,1.73
2022-09-28T22:02:52.517Z,1.55
2022-09-28T22:05:19.665Z,1.55
2022-09-28T22:07:46.419Z,1.30
2022-09-28T22:10:13.876Z,1.17
2022-09-28T22:12:40.851Z,1.00
2022-09-28T22:15:08.095Z,1.85
2022-09-28T22:17:35.151Z,1.20
2022-09-28T22:20:01.953Z,1.20
2022-09-28T22:22:29.338Z,1.13
2022-09-28T22:24:56.410Z,1.80
2022-09-28T22:27:24.080Z,2.15
2022-09-28T22:29:51.243Z,1.08
2022-09-28T22:32:17.974Z,0.88
2022-09-28T22:34:44.656Z,1.67
2022-09-28T22:37:11.349Z,1.27
2022-09-28T22:39:40.965Z,1.52
2022-09-28T22:42:08.284Z,2.28
2022-09-28T22:44:35.923Z,1.42
2022-09-28T22:47:03.345Z,1.35
2022-09-28T22:49:31.150Z,1.42
2022-09-28T22:51:58.099Z,1.45
2022-09-28T22:54:25.249Z,1.10
2022-09-28T22:56:51.967Z,1.17
2022-09-28T22:59:18.867Z,1.67
2022-09-28T23:01:45.869Z,0.60
2022-09-28T23:04:12.735Z,1.10
2022-09-28T23:06:39.639Z,1.27
2022-09-28T23:09:06.473Z,1.30
2022-09-28T23:11:33.218Z,0.95
2022-09-28T23:14:00.547Z,1.08
2022-09-28T23:16:27.730Z,1.42
2022-09-28T23:18:55.508Z,0.85
2022-09-28T23:21:23.637Z,1.60
2022-09-28T23:23:55.273Z,1.10
2022-09-28T23:26:24.036Z,0.70
2022-09-28T23:28:51.198Z,0.75
2022-09-28T23:31:20.252Z,1.27
2022-09-28T23:33:47.170Z,1.10
2022-09-28T23:36:14.127Z,1.08
2022-09-28T23:38:41.014Z,0.75
2022-09-28T23:41:07.891Z,0.90
2022-09-28T23:43:34.954Z,0.93
2022-09-28T23:46:02.335Z,0.63
2022-09-28T23:48:29.172Z,1.00
2022-09-28T23:50:55.874Z,0.82
2022-09-28T23:53:22.588Z,0.50
2022-09-28T23:55:49.681Z,0.77
2022-09-28T23:58:16.586Z,0.47
